sensor_id;sensor_type;location;lat;lon;timestamp;P1;durP1;ratioP1;P2;durP2;ratioP2
11839;SDS011;5979;50.800;4.904;2023-08-08T00:01:06;2.83;;;2.38;;
11839;SDS011;5979;50.800;4.904;2023-08-08T00:03:31;2.35;;;2.15;;
11839;SDS011;5979;50.800;4.904;2023-08-08T00:05:57;4.53;;;2.25;;
11839;SDS011;5979;50.800;4.904;2023-08-08T00:08:23;3.42;;;2.10;;
11839;SDS011;5979;50.800;4.904;2023-08-08T00:10:48;2.92;;;2.50;;
11839;SDS011;5979;50.800;4.904;2023-08-08T00:13:14;3.38;;;2.25;;
11839;SDS011;5979;50.800;4.904;2023-08-08T00:15:40;2.50;;;2.30;;
11839;SDS011;5979;50.800;4.904;2023-08-08T00:18:05;2.30;;;2.10;;
11839;SDS011;5979;50.800;4.904;2023-08-08T00:20:31;2.40;;;2.20;;
11839;SDS011;5979;50.800;4.904;2023-08-08T00:22:57;4.32;;;2.60;;
11839;SDS011;5979;50.800;4.904;2023-08-08T00:25:22;3.17;;;2.58;;
11839;SDS011;5979;50.800;4.904;2023-08-08T00:27:49;2.47;;;2.28;;
11839;SDS011;5979;50.800;4.904;2023-08-08T00:30:15;3.65;;;2.10;;
11839;SDS011;5979;50.800;4.904;2023-08-08T00:32:41;3.35;;;2.30;;
11839;SDS011;5979;50.800;4.904;2023-08-08T00:35:07;2.95;;;2.30;;
11839;SDS011;5979;50.800;4.904;2023-08-08T00:37:33;2.42;;;2.30;;
11839;SDS011;5979;50.800;4.904;2023-08-08T00:39:59;3.42;;;2.47;;
11839;SDS011;5979;50.800;4.904;2023-08-08T00:42:24;2.70;;;2.50;;
11839;SDS011;5979;50.800;4.904;2023-08-08T00:44:50;3.45;;;2.42;;
11839;SDS011;5979;50.800;4.904;2023-08-08T00:47:16;2.47;;;2.33;;
11839;SDS011;5979;50.800;4.904;2023-08-08T00:49:42;2.67;;;2.47;;
11839;SDS011;5979;50.800;4.904;2023-08-08T00:52:09;3.28;;;2.28;;
11839;SDS011;5979;50.800;4.904;2023-08-08T00:54:35;4.13;;;2.70;;
11839;SDS011;5979;50.800;4.904;2023-08-08T00:57:01;5.65;;;3.00;;
11839;SDS011;5979;50.800;4.904;2023-08-08T00:59:27;3.58;;;2.97;;
11839;SDS011;5979;50.800;4.904;2023-08-08T01:01:52;4.82;;;3.00;;
11839;SDS011;5979;50.800;4.904;2023-08-08T01:04:18;4.38;;;2.88;;
11839;SDS011;5979;50.800;4.904;2023-08-08T01:09:23;3.88;;;2.67;;
11839;SDS011;5979;50.800;4.904;2023-08-08T01:11:55;9.15;;;3.08;;
11839;SDS011;5979;50.800;4.904;2023-08-08T01:14:21;3.20;;;3.00;;
11839;SDS011;5979;50.800;4.904;2023-08-08T01:16:49;4.30;;;3.10;;
11839;SDS011;5979;50.800;4.904;2023-08-08T01:19:18;3.88;;;2.72;;
11839;SDS011;5979;50.800;4.904;2023-08-08T01:21:49;4.60;;;3.10;;
11839;SDS011;5979;50.800;4.904;2023-08-08T01:24:21;6.13;;;2.85;;
11839;SDS011;5979;50.800;4.904;2023-08-08T01:26:48;4.57;;;2.95;;
11839;SDS011;5979;50.800;4.904;2023-08-08T01:29:14;10.18;;;3.17;;
11839;SDS011;5979;50.800;4.904;2023-08-08T01:31:40;3.63;;;2.92;;
11839;SDS011;5979;50.800;4.904;2023-08-08T01:34:06;5.38;;;2.67;;
11839;SDS011;5979;50.800;4.904;2023-08-08T01:36:35;7.13;;;2.90;;
11839;SDS011;5979;50.800;4.904;2023-08-08T01:39:07;4.20;;;2.72;;
11839;SDS011;5979;50.800;4.904;2023-08-08T01:41:39;3.60;;;3.13;;
11839;SDS011;5979;50.800;4.904;2023-08-08T01:44:06;4.28;;;2.90;;
11839;SDS011;5979;50.800;4.904;2023-08-08T01:46:32;5.22;;;2.63;;
11839;SDS011;5979;50.800;4.904;2023-08-08T01:48:59;4.28;;;3.63;;
11839;SDS011;5979;50.800;4.904;2023-08-08T01:51:25;5.30;;;3.28;;
11839;SDS011;5979;50.800;4.904;2023-08-08T01:53:52;8.40;;;2.97;;
11839;SDS011;5979;50.800;4.904;2023-08-08T01:56:17;4.05;;;3.05;;
11839;SDS011;5979;50.800;4.904;2023-08-08T01:58:43;5.78;;;3.22;;
11839;SDS011;5979;50.800;4.904;2023-08-08T02:01:09;4.57;;;3.03;;
11839;SDS011;5979;50.800;4.904;2023-08-08T02:03:34;4.68;;;3.40;;
11839;SDS011;5979;50.800;4.904;2023-08-08T02:06:00;5.65;;;3.20;;
11839;SDS011;5979;50.800;4.904;2023-08-08T02:08:25;6.05;;;3.20;;
11839;SDS011;5979;50.800;4.904;2023-08-08T02:10:51;3.17;;;2.88;;
11839;SDS011;5979;50.800;4.904;2023-08-08T02:13:17;10.38;;;3.50;;
11839;SDS011;5979;50.800;4.904;2023-08-08T02:15:42;4.50;;;3.03;;
11839;SDS011;5979;50.800;4.904;2023-08-08T02:18:08;3.25;;;2.95;;
11839;SDS011;5979;50.800;4.904;2023-08-08T02:20:36;3.67;;;3.00;;
11839;SDS011;5979;50.800;4.904;2023-08-08T02:23:01;5.75;;;3.40;;
11839;SDS011;5979;50.800;4.904;2023-08-08T02:25:27;8.77;;;3.47;;
11839;SDS011;5979;50.800;4.904;2023-08-08T02:27:53;4.90;;;3.00;;
11839;SDS011;5979;50.800;4.904;2023-08-08T02:30:19;3.38;;;2.90;;
11839;SDS011;5979;50.800;4.904;2023-08-08T02:32:44;5.43;;;3.08;;
11839;SDS011;5979;50.800;4.904;2023-08-08T02:35:10;4.00;;;3.17;;
11839;SDS011;5979;50.800;4.904;2023-08-08T02:37:36;10.52;;;3.50;;
11839;SDS011;5979;50.800;4.904;2023-08-08T02:40:02;4.65;;;2.95;;
11839;SDS011;5979;50.800;4.904;2023-08-08T02:42:29;6.20;;;3.05;;
11839;SDS011;5979;50.800;4.904;2023-08-08T02:44:55;6.20;;;3.50;;
11839;SDS011;5979;50.800;4.904;2023-08-08T02:47:21;6.68;;;3.10;;
11839;SDS011;5979;50.800;4.904;2023-08-08T02:49:46;6.18;;;3.10;;
11839;SDS011;5979;50.800;4.904;2023-08-08T02:52:12;8.45;;;3.30;;
11839;SDS011;5979;50.800;4.904;2023-08-08T02:54:37;6.95;;;3.22;;
11839;SDS011;5979;50.800;4.904;2023-08-08T02:57:03;5.47;;;3.55;;
11839;SDS011;5979;50.800;4.904;2023-08-08T02:59:29;4.35;;;3.10;;
11839;SDS011;5979;50.800;4.904;2023-08-08T03:01:55;6.45;;;3.20;;
11839;SDS011;5979;50.800;4.904;2023-08-08T03:04:20;5.57;;;3.58;;
11839;SDS011;5979;50.800;4.904;2023-08-08T03:06:46;8.57;;;3.40;;
11839;SDS011;5979;50.800;4.904;2023-08-08T03:09:12;8.27;;;3.70;;
11839;SDS011;5979;50.800;4.904;2023-08-08T03:11:37;6.88;;;3.40;;
11839;SDS011;5979;50.800;4.904;2023-08-08T03:14:06;5.05;;;3.33;;
11839;SDS011;5979;50.800;4.904;2023-08-08T03:16:32;8.13;;;3.55;;
11839;SDS011;5979;50.800;4.904;2023-08-08T03:18:58;5.35;;;2.97;;
11839;SDS011;5979;50.800;4.904;2023-08-08T03:21:24;10.88;;;3.58;;
11839;SDS011;5979;50.800;4.904;2023-08-08T03:23:49;8.85;;;3.42;;
11839;SDS011;5979;50.800;4.904;2023-08-08T03:26:15;5.95;;;3.50;;
11839;SDS011;5979;50.800;4.904;2023-08-08T03:28:40;6.72;;;3.40;;
11839;SDS011;5979;50.800;4.904;2023-08-08T03:31:06;6.45;;;3.33;;
11839;SDS011;5979;50.800;4.904;2023-08-08T03:33:32;6.40;;;3.20;;
11839;SDS011;5979;50.800;4.904;2023-08-08T03:35:58;5.80;;;3.33;;
11839;SDS011;5979;50.800;4.904;2023-08-08T03:38:24;6.97;;;2.63;;
11839;SDS011;5979;50.800;4.904;2023-08-08T03:40:50;6.75;;;3.20;;
11839;SDS011;5979;50.800;4.904;2023-08-08T03:43:15;3.45;;;2.88;;
11839;SDS011;5979;50.800;4.904;2023-08-08T03:45:41;6.05;;;3.58;;
11839;SDS011;5979;50.800;4.904;2023-08-08T03:48:07;7.88;;;3.45;;
11839;SDS011;5979;50.800;4.904;2023-08-08T03:50:32;4.97;;;3.38;;
11839;SDS011;5979;50.800;4.904;2023-08-08T03:52:58;4.95;;;2.92;;
11839;SDS011;5979;50.800;4.904;2023-08-08T03:55:24;7.40;;;3.90;;
11839;SDS011;5979;50.800;4.904;2023-08-08T03:57:50;4.85;;;3.45;;
11839;SDS011;5979;50.800;4.904;2023-08-08T04:00:17;5.53;;;3.20;;
11839;SDS011;5979;50.800;4.904;2023-08-08T04:02:42;5.82;;;3.60;;
11839;SDS011;5979;50.800;4.904;2023-08-08T04:05:08;4.90;;;3.80;;
11839;SDS011;5979;50.800;4.904;2023-08-08T04:07:34;6.97;;;3.45;;
11839;SDS011;5979;50.800;4.904;2023-08-08T04:10:00;6.20;;;4.07;;
11839;SDS011;5979;50.800;4.904;2023-08-08T04:12:26;7.95;;;4.78;;
11839;SDS011;5979;50.800;4.904;2023-08-08T04:14:52;8.60;;;4.00;;
11839;SDS011;5979;50.800;4.904;2023-08-08T04:17:17;7.65;;;4.10;;
11839;SDS011;5979;50.800;4.904;2023-08-08T04:19:43;10.68;;;4.70;;
11839;SDS011;5979;50.800;4.904;2023-08-08T04:22:08;8.82;;;4.70;;
11839;SDS011;5979;50.800;4.904;2023-08-08T04:24:35;11.52;;;4.68;;
11839;SDS011;5979;50.800;4.904;2023-08-08T04:27:00;10.10;;;4.47;;
11839;SDS011;5979;50.800;4.904;2023-08-08T04:29:26;6.43;;;4.25;;
11839;SDS011;5979;50.800;4.904;2023-08-08T04:31:52;9.50;;;4.25;;
11839;SDS011;5979;50.800;4.904;2023-08-08T04:34:17;7.13;;;4.32;;
11839;SDS011;5979;50.800;4.904;2023-08-08T04:36:43;7.88;;;4.20;;
11839;SDS011;5979;50.800;4.904;2023-08-08T04:39:09;9.10;;;4.38;;
11839;SDS011;5979;50.800;4.904;2023-08-08T04:41:34;8.40;;;4.13;;
11839;SDS011;5979;50.800;4.904;2023-08-08T04:44:00;8.80;;;4.65;;
11839;SDS011;5979;50.800;4.904;2023-08-08T04:46:25;6.63;;;4.40;;
11839;SDS011;5979;50.800;4.904;2023-08-08T04:48:51;8.63;;;4.30;;
11839;SDS011;5979;50.800;4.904;2023-08-08T04:51:17;7.28;;;4.57;;
11839;SDS011;5979;50.800;4.904;2023-08-08T04:53:42;9.93;;;4.03;;
11839;SDS011;5979;50.800;4.904;2023-08-08T04:56:08;8.77;;;4.30;;
11839;SDS011;5979;50.800;4.904;2023-08-08T04:58:34;8.20;;;4.15;;
11839;SDS011;5979;50.800;4.904;2023-08-08T05:00:59;10.20;;;4.75;;
11839;SDS011;5979;50.800;4.904;2023-08-08T05:03:25;5.07;;;4.35;;
11839;SDS011;5979;50.800;4.904;2023-08-08T05:05:51;4.13;;;3.30;;
11839;SDS011;5979;50.800;4.904;2023-08-08T05:08:16;7.30;;;3.85;;
11839;SDS011;5979;50.800;4.904;2023-08-08T05:10:42;5.47;;;4.00;;
11839;SDS011;5979;50.800;4.904;2023-08-08T05:13:09;6.55;;;3.10;;
11839;SDS011;5979;50.800;4.904;2023-08-08T05:15:34;5.63;;;3.55;;
11839;SDS011;5979;50.800;4.904;2023-08-08T05:18:00;5.72;;;2.75;;
11839;SDS011;5979;50.800;4.904;2023-08-08T05:20:25;6.53;;;3.33;;
11839;SDS011;5979;50.800;4.904;2023-08-08T05:22:51;7.40;;;2.83;;
11839;SDS011;5979;50.800;4.904;2023-08-08T05:25:17;4.68;;;2.97;;
11839;SDS011;5979;50.800;4.904;2023-08-08T05:27:43;8.57;;;3.38;;
11839;SDS011;5979;50.800;4.904;2023-08-08T05:30:08;5.88;;;3.45;;
11839;SDS011;5979;50.800;4.904;2023-08-08T05:32:34;4.13;;;3.08;;
11839;SDS011;5979;50.800;4.904;2023-08-08T05:35:00;3.67;;;2.50;;
11839;SDS011;5979;50.800;4.904;2023-08-08T05:37:28;9.43;;;3.33;;
11839;SDS011;5979;50.800;4.904;2023-08-08T05:39:54;4.13;;;2.65;;
11839;SDS011;5979;50.800;4.904;2023-08-08T05:42:20;6.18;;;2.97;;
11839;SDS011;5979;50.800;4.904;2023-08-08T05:44:45;8.55;;;3.50;;
11839;SDS011;5979;50.800;4.904;2023-08-08T05:47:11;6.13;;;3.30;;
11839;SDS011;5979;50.800;4.904;2023-08-08T05:49:38;4.55;;;3.28;;
11839;SDS011;5979;50.800;4.904;2023-08-08T05:52:04;5.82;;;3.08;;
11839;SDS011;5979;50.800;4.904;2023-08-08T05:54:30;6.10;;;3.00;;
11839;SDS011;5979;50.800;4.904;2023-08-08T05:56:55;5.70;;;2.97;;
11839;SDS011;5979;50.800;4.904;2023-08-08T05:59:21;6.35;;;2.83;;
11839;SDS011;5979;50.800;4.904;2023-08-08T06:01:47;8.00;;;2.85;;
11839;SDS011;5979;50.800;4.904;2023-08-08T06:04:13;3.63;;;2.50;;
11839;SDS011;5979;50.800;4.904;2023-08-08T06:06:39;3.28;;;2.78;;
11839;SDS011;5979;50.800;4.904;2023-08-08T06:09:05;5.63;;;3.05;;
11839;SDS011;5979;50.800;4.904;2023-08-08T06:11:30;6.78;;;3.13;;
11839;SDS011;5979;50.800;4.904;2023-08-08T06:13:56;6.13;;;3.28;;
11839;SDS011;5979;50.800;4.904;2023-08-08T06:16:22;6.38;;;3.63;;
11839;SDS011;5979;50.800;4.904;2023-08-08T06:18:48;8.30;;;3.30;;
11839;SDS011;5979;50.800;4.904;2023-08-08T06:21:13;6.60;;;3.33;;
11839;SDS011;5979;50.800;4.904;2023-08-08T06:23:39;5.38;;;3.22;;
11839;SDS011;5979;50.800;4.904;2023-08-08T06:26:05;8.40;;;3.65;;
11839;SDS011;5979;50.800;4.904;2023-08-08T06:28:31;3.53;;;3.17;;
11839;SDS011;5979;50.800;4.904;2023-08-08T06:30:57;5.72;;;3.28;;
11839;SDS011;5979;50.800;4.904;2023-08-08T06:33:23;5.90;;;3.03;;
11839;SDS011;5979;50.800;4.904;2023-08-08T06:35:49;6.80;;;3.13;;
11839;SDS011;5979;50.800;4.904;2023-08-08T06:38:15;3.67;;;3.20;;
11839;SDS011;5979;50.800;4.904;2023-08-08T06:40:40;6.50;;;3.42;;
11839;SDS011;5979;50.800;4.904;2023-08-08T06:43:06;5.32;;;3.17;;
11839;SDS011;5979;50.800;4.904;2023-08-08T06:45:32;5.40;;;3.17;;
11839;SDS011;5979;50.800;4.904;2023-08-08T06:47:57;8.55;;;3.70;;
11839;SDS011;5979;50.800;4.904;2023-08-08T06:50:23;7.10;;;3.35;;
11839;SDS011;5979;50.800;4.904;2023-08-08T06:52:52;6.90;;;3.38;;
11839;SDS011;5979;50.800;4.904;2023-08-08T06:55:17;5.40;;;3.33;;
11839;SDS011;5979;50.800;4.904;2023-08-08T06:57:43;4.75;;;3.10;;
11839;SDS011;5979;50.800;4.904;2023-08-08T07:00:09;5.00;;;3.55;;
11839;SDS011;5979;50.800;4.904;2023-08-08T07:02:38;4.97;;;2.80;;
11839;SDS011;5979;50.800;4.904;2023-08-08T07:05:04;6.70;;;2.80;;
11839;SDS011;5979;50.800;4.904;2023-08-08T07:07:31;7.07;;;2.88;;
11839;SDS011;5979;50.800;4.904;2023-08-08T07:09:58;7.38;;;3.22;;
11839;SDS011;5979;50.800;4.904;2023-08-08T07:12:24;6.53;;;2.90;;
11839;SDS011;5979;50.800;4.904;2023-08-08T07:14:50;6.30;;;2.83;;
11839;SDS011;5979;50.800;4.904;2023-08-08T07:17:16;4.60;;;2.72;;
11839;SDS011;5979;50.800;4.904;2023-08-08T07:19:41;6.00;;;2.70;;
11839;SDS011;5979;50.800;4.904;2023-08-08T07:22:07;6.28;;;2.78;;
11839;SDS011;5979;50.800;4.904;2023-08-08T07:24:33;7.53;;;2.50;;
11839;SDS011;5979;50.800;4.904;2023-08-08T07:26:59;5.20;;;2.47;;
11839;SDS011;5979;50.800;4.904;2023-08-08T07:29:25;4.20;;;3.03;;
11839;SDS011;5979;50.800;4.904;2023-08-08T07:31:52;6.78;;;3.03;;
11839;SDS011;5979;50.800;4.904;2023-08-08T07:34:18;6.20;;;2.67;;
11839;SDS011;5979;50.800;4.904;2023-08-08T07:36:44;5.53;;;2.42;;
11839;SDS011;5979;50.800;4.904;2023-08-08T07:39:10;3.80;;;2.85;;
11839;SDS011;5979;50.800;4.904;2023-08-08T07:41:36;5.32;;;2.70;;
11839;SDS011;5979;50.800;4.904;2023-08-08T07:44:02;3.15;;;2.60;;
11839;SDS011;5979;50.800;4.904;2023-08-08T07:46:28;4.40;;;2.55;;
11839;SDS011;5979;50.800;4.904;2023-08-08T07:48:54;6.70;;;2.70;;
11839;SDS011;5979;50.800;4.904;2023-08-08T07:51:19;4.97;;;2.45;;
11839;SDS011;5979;50.800;4.904;2023-08-08T07:53:45;6.40;;;2.85;;
11839;SDS011;5979;50.800;4.904;2023-08-08T07:56:11;5.47;;;2.40;;
11839;SDS011;5979;50.800;4.904;2023-08-08T07:58:36;4.10;;;2.50;;
11839;SDS011;5979;50.800;4.904;2023-08-08T08:01:02;5.13;;;2.35;;
11839;SDS011;5979;50.800;4.904;2023-08-08T08:03:28;4.53;;;2.30;;
11839;SDS011;5979;50.800;4.904;2023-08-08T08:05:53;6.20;;;2.30;;
11839;SDS011;5979;50.800;4.904;2023-08-08T08:08:19;4.88;;;2.65;;
11839;SDS011;5979;50.800;4.904;2023-08-08T08:10:46;4.32;;;2.38;;
11839;SDS011;5979;50.800;4.904;2023-08-08T08:13:13;4.00;;;2.33;;
11839;SDS011;5979;50.800;4.904;2023-08-08T08:15:39;3.17;;;2.38;;
11839;SDS011;5979;50.800;4.904;2023-08-08T08:18:05;3.38;;;1.98;;
11839;SDS011;5979;50.800;4.904;2023-08-08T08:20:31;5.78;;;2.50;;
11839;SDS011;5979;50.800;4.904;2023-08-08T08:22:56;3.53;;;2.30;;
11839;SDS011;5979;50.800;4.904;2023-08-08T08:25:22;4.60;;;2.22;;
11839;SDS011;5979;50.800;4.904;2023-08-08T08:27:48;6.47;;;2.42;;
11839;SDS011;5979;50.800;4.904;2023-08-08T08:30:13;6.85;;;2.10;;
11839;SDS011;5979;50.800;4.904;2023-08-08T08:32:39;7.75;;;2.70;;
11839;SDS011;5979;50.800;4.904;2023-08-08T08:35:06;5.28;;;2.45;;
11839;SDS011;5979;50.800;4.904;2023-08-08T08:37:33;4.93;;;2.17;;
11839;SDS011;5979;50.800;4.904;2023-08-08T08:39:59;2.63;;;2.13;;
11839;SDS011;5979;50.800;4.904;2023-08-08T08:42:26;4.53;;;1.95;;
11839;SDS011;5979;50.800;4.904;2023-08-08T08:44:54;4.40;;;2.00;;
11839;SDS011;5979;50.800;4.904;2023-08-08T08:47:23;8.45;;;2.47;;
11839;SDS011;5979;50.800;4.904;2023-08-08T08:49:50;5.00;;;2.53;;
11839;SDS011;5979;50.800;4.904;2023-08-08T08:52:17;4.53;;;2.00;;
11839;SDS011;5979;50.800;4.904;2023-08-08T08:54:43;4.05;;;2.42;;
11839;SDS011;5979;50.800;4.904;2023-08-08T08:57:09;2.60;;;2.20;;
11839;SDS011;5979;50.800;4.904;2023-08-08T08:59:35;3.67;;;2.38;;
11839;SDS011;5979;50.800;4.904;2023-08-08T09:02:01;3.40;;;2.13;;
11839;SDS011;5979;50.800;4.904;2023-08-08T09:04:27;3.35;;;1.92;;
11839;SDS011;5979;50.800;4.904;2023-08-08T09:06:54;4.10;;;2.53;;
11839;SDS011;5979;50.800;4.904;2023-08-08T09:09:20;3.05;;;2.17;;
11839;SDS011;5979;50.800;4.904;2023-08-08T09:11:48;2.83;;;2.20;;
11839;SDS011;5979;50.800;4.904;2023-08-08T09:14:19;2.72;;;2.42;;
11839;SDS011;5979;50.800;4.904;2023-08-08T09:16:49;4.63;;;2.42;;
11839;SDS011;5979;50.800;4.904;2023-08-08T09:19:16;2.75;;;2.10;;
11839;SDS011;5979;50.800;4.904;2023-08-08T09:21:43;4.80;;;2.30;;
11839;SDS011;5979;50.800;4.904;2023-08-08T09:24:09;4.75;;;2.05;;
11839;SDS011;5979;50.800;4.904;2023-08-08T09:26:35;2.65;;;2.10;;
11839;SDS011;5979;50.800;4.904;2023-08-08T09:29:01;5.30;;;2.10;;
11839;SDS011;5979;50.800;4.904;2023-08-08T09:31:27;4.75;;;2.25;;
11839;SDS011;5979;50.800;4.904;2023-08-08T09:33:57;3.13;;;2.20;;
11839;SDS011;5979;50.800;4.904;2023-08-08T09:36:23;5.72;;;2.33;;
11839;SDS011;5979;50.800;4.904;2023-08-08T09:38:49;3.38;;;2.10;;
11839;SDS011;5979;50.800;4.904;2023-08-08T09:41:15;2.45;;;2.25;;
11839;SDS011;5979;50.800;4.904;2023-08-08T09:43:44;4.47;;;2.20;;
11839;SDS011;5979;50.800;4.904;2023-08-08T09:46:10;2.97;;;2.20;;
11839;SDS011;5979;50.800;4.904;2023-08-08T09:48:36;2.55;;;2.15;;
11839;SDS011;5979;50.800;4.904;2023-08-08T09:51:04;4.00;;;2.33;;
11839;SDS011;5979;50.800;4.904;2023-08-08T09:53:32;2.78;;;2.30;;
11839;SDS011;5979;50.800;4.904;2023-08-08T09:55:58;3.42;;;2.38;;
11839;SDS011;5979;50.800;4.904;2023-08-08T09:58:28;3.22;;;1.95;;
11839;SDS011;5979;50.800;4.904;2023-08-08T10:00:53;5.18;;;1.95;;
11839;SDS011;5979;50.800;4.904;2023-08-08T10:03:19;2.30;;;1.92;;
11839;SDS011;5979;50.800;4.904;2023-08-08T10:05:45;3.17;;;1.90;;
11839;SDS011;5979;50.800;4.904;2023-08-08T10:08:11;3.22;;;2.17;;
11839;SDS011;5979;50.800;4.904;2023-08-08T10:10:40;2.88;;;2.20;;
11839;SDS011;5979;50.800;4.904;2023-08-08T10:13:08;3.60;;;2.08;;
11839;SDS011;5979;50.800;4.904;2023-08-08T10:15:36;5.15;;;2.40;;
11839;SDS011;5979;50.800;4.904;2023-08-08T10:18:03;5.35;;;2.17;;
11839;SDS011;5979;50.800;4.904;2023-08-08T10:20:30;4.68;;;2.33;;
11839;SDS011;5979;50.800;4.904;2023-08-08T10:23:02;3.50;;;1.90;;
11839;SDS011;5979;50.800;4.904;2023-08-08T10:25:29;4.05;;;2.40;;
11839;SDS011;5979;50.800;4.904;2023-08-08T10:28:06;2.78;;;2.10;;
11839;SDS011;5979;50.800;4.904;2023-08-08T10:30:48;3.97;;;2.35;;
11839;SDS011;5979;50.800;4.904;2023-08-08T10:36:03;3.22;;;1.95;;
11839;SDS011;5979;50.800;4.904;2023-08-08T10:38:43;3.05;;;2.05;;
11839;SDS011;5979;50.800;4.904;2023-08-08T10:41:16;3.05;;;1.98;;
11839;SDS011;5979;50.800;4.904;2023-08-08T10:43:50;5.80;;;2.40;;
11839;SDS011;5979;50.800;4.904;2023-08-08T10:46:23;4.05;;;2.13;;
11839;SDS011;5979;50.800;4.904;2023-08-08T10:48:53;6.07;;;1.77;;
11839;SDS011;5979;50.800;4.904;2023-08-08T10:51:21;2.53;;;1.88;;
11839;SDS011;5979;50.800;4.904;2023-08-08T10:53:50;7.68;;;2.30;;
11839;SDS011;5979;50.800;4.904;2023-08-08T10:56:17;3.78;;;2.50;;
11839;SDS011;5979;50.800;4.904;2023-08-08T10:58:47;3.92;;;2.10;;
11839;SDS011;5979;50.800;4.904;2023-08-08T11:01:14;2.85;;;2.25;;
11839;SDS011;5979;50.800;4.904;2023-08-08T11:03:42;8.07;;;2.28;;
11839;SDS011;5979;50.800;4.904;2023-08-08T11:06:08;2.80;;;2.35;;
11839;SDS011;5979;50.800;4.904;2023-08-08T11:08:35;3.63;;;2.22;;
11839;SDS011;5979;50.800;4.904;2023-08-08T11:11:03;4.45;;;2.50;;
11839;SDS011;5979;50.800;4.904;2023-08-08T11:13:32;3.00;;;1.90;;
11839;SDS011;5979;50.800;4.904;2023-08-08T11:15:58;2.50;;;1.75;;
11839;SDS011;5979;50.800;4.904;2023-08-08T11:18:26;2.63;;;2.22;;
11839;SDS011;5979;50.800;4.904;2023-08-08T11:20:53;4.65;;;2.20;;
11839;SDS011;5979;50.800;4.904;2023-08-08T11:23:18;2.15;;;1.98;;
11839;SDS011;5979;50.800;4.904;2023-08-08T11:25:46;2.55;;;2.25;;
11839;SDS011;5979;50.800;4.904;2023-08-08T11:28:12;3.75;;;2.20;;
11839;SDS011;5979;50.800;4.904;2023-08-08T11:30:40;4.32;;;2.03;;
11839;SDS011;5979;50.800;4.904;2023-08-08T11:33:07;2.55;;;1.88;;
11839;SDS011;5979;50.800;4.904;2023-08-08T11:35:33;2.08;;;1.88;;
11839;SDS011;5979;50.800;4.904;2023-08-08T11:37:59;2.60;;;1.95;;
11839;SDS011;5979;50.800;4.904;2023-08-08T11:40:27;3.03;;;1.70;;
11839;SDS011;5979;50.800;4.904;2023-08-08T11:42:54;2.15;;;1.80;;
11839;SDS011;5979;50.800;4.904;2023-08-08T11:45:22;3.35;;;2.13;;
11839;SDS011;5979;50.800;4.904;2023-08-08T11:47:51;2.78;;;2.15;;
11839;SDS011;5979;50.800;4.904;2023-08-08T11:50:19;1.60;;;1.50;;
11839;SDS011;5979;50.800;4.904;2023-08-08T11:52:48;3.92;;;2.13;;
11839;SDS011;5979;50.800;4.904;2023-08-08T11:55:15;4.80;;;2.25;;
11839;SDS011;5979;50.800;4.904;2023-08-08T11:57:41;5.70;;;2.15;;
11839;SDS011;5979;50.800;4.904;2023-08-08T12:00:07;1.95;;;1.75;;
11839;SDS011;5979;50.800;4.904;2023-08-08T12:02:37;2.35;;;2.15;;
11839;SDS011;5979;50.800;4.904;2023-08-08T12:05:07;3.38;;;1.58;;
11839;SDS011;5979;50.800;4.904;2023-08-08T12:07:36;3.10;;;2.10;;
11839;SDS011;5979;50.800;4.904;2023-08-08T12:10:05;2.78;;;1.75;;
11839;SDS011;5979;50.800;4.904;2023-08-08T12:12:38;5.00;;;1.85;;
11839;SDS011;5979;50.800;4.904;2023-08-08T12:15:05;2.72;;;2.00;;
11839;SDS011;5979;50.800;4.904;2023-08-08T12:17:32;3.05;;;1.95;;
11839;SDS011;5979;50.800;4.904;2023-08-08T12:20:02;1.83;;;1.70;;
11839;SDS011;5979;50.800;4.904;2023-08-08T12:22:30;3.70;;;1.90;;
11839;SDS011;5979;50.800;4.904;2023-08-08T12:24:56;2.50;;;1.70;;
11839;SDS011;5979;50.800;4.904;2023-08-08T12:27:21;6.05;;;1.75;;
11839;SDS011;5979;50.800;4.904;2023-08-08T12:29:47;1.67;;;1.55;;
11839;SDS011;5979;50.800;4.904;2023-08-08T12:32:13;1.73;;;1.63;;
11839;SDS011;5979;50.800;4.904;2023-08-08T12:34:38;3.53;;;2.10;;
11839;SDS011;5979;50.800;4.904;2023-08-08T12:37:04;2.85;;;1.70;;
11839;SDS011;5979;50.800;4.904;2023-08-08T12:39:30;3.17;;;1.80;;
11839;SDS011;5979;50.800;4.904;2023-08-08T12:41:55;1.95;;;1.40;;
11839;SDS011;5979;50.800;4.904;2023-08-08T12:44:21;2.22;;;1.90;;
11839;SDS011;5979;50.800;4.904;2023-08-08T12:46:47;2.40;;;2.05;;
11839;SDS011;5979;50.800;4.904;2023-08-08T12:49:13;2.38;;;1.60;;
11839;SDS011;5979;50.800;4.904;2023-08-08T12:51:38;1.85;;;1.55;;
11839;SDS011;5979;50.800;4.904;2023-08-08T12:54:04;3.47;;;1.70;;
11839;SDS011;5979;50.800;4.904;2023-08-08T12:56:30;2.00;;;1.25;;
11839;SDS011;5979;50.800;4.904;2023-08-08T12:58:56;2.83;;;1.50;;
11839;SDS011;5979;50.800;4.904;2023-08-08T13:01:22;2.72;;;1.90;;
11839;SDS011;5979;50.800;4.904;2023-08-08T13:03:49;2.10;;;1.48;;
11839;SDS011;5979;50.800;4.904;2023-08-08T13:06:15;3.75;;;1.80;;
11839;SDS011;5979;50.800;4.904;2023-08-08T13:08:40;1.60;;;1.50;;
11839;SDS011;5979;50.800;4.904;2023-08-08T13:11:06;1.73;;;1.55;;
11839;SDS011;5979;50.800;4.904;2023-08-08T13:13:33;2.47;;;1.42;;
11839;SDS011;5979;50.800;4.904;2023-08-08T13:15:58;2.97;;;1.40;;
11839;SDS011;5979;50.800;4.904;2023-08-08T13:18:24;3.58;;;1.58;;
11839;SDS011;5979;50.800;4.904;2023-08-08T13:20:50;3.05;;;1.80;;
11839;SDS011;5979;50.800;4.904;2023-08-08T13:23:16;1.70;;;1.50;;
11839;SDS011;5979;50.800;4.904;2023-08-08T13:25:41;1.55;;;1.45;;
11839;SDS011;5979;50.800;4.904;2023-08-08T13:28:07;1.83;;;1.73;;
11839;SDS011;5979;50.800;4.904;2023-08-08T13:30:33;1.50;;;1.40;;
11839;SDS011;5979;50.800;4.904;2023-08-08T13:33:00;1.70;;;1.60;;
11839;SDS011;5979;50.800;4.904;2023-08-08T13:35:26;2.97;;;1.60;;
11839;SDS011;5979;50.800;4.904;2023-08-08T13:37:52;1.50;;;1.40;;
11839;SDS011;5979;50.800;4.904;2023-08-08T13:40:19;1.67;;;1.48;;
11839;SDS011;5979;50.800;4.904;2023-08-08T13:42:45;1.33;;;1.23;;
11839;SDS011;5979;50.800;4.904;2023-08-08T13:45:17;2.47;;;1.55;;
11839;SDS011;5979;50.800;4.904;2023-08-08T13:47:43;2.38;;;1.70;;
11839;SDS011;5979;50.800;4.904;2023-08-08T13:50:09;3.60;;;1.80;;
11839;SDS011;5979;50.800;4.904;2023-08-08T13:52:34;2.17;;;1.60;;
11839;SDS011;5979;50.800;4.904;2023-08-08T13:55:00;4.03;;;1.90;;
11839;SDS011;5979;50.800;4.904;2023-08-08T13:57:26;1.70;;;1.60;;
11839;SDS011;5979;50.800;4.904;2023-08-08T13:59:51;3.22;;;1.70;;
11839;SDS011;5979;50.800;4.904;2023-08-08T14:02:18;2.30;;;1.65;;
11839;SDS011;5979;50.800;4.904;2023-08-08T14:04:45;1.75;;;1.60;;
11839;SDS011;5979;50.800;4.904;2023-08-08T14:07:11;1.65;;;1.55;;
11839;SDS011;5979;50.800;4.904;2023-08-08T14:09:37;2.05;;;1.60;;
11839;SDS011;5979;50.800;4.904;2023-08-08T14:12:02;1.50;;;1.40;;
11839;SDS011;5979;50.800;4.904;2023-08-08T14:14:29;2.30;;;1.52;;
11839;SDS011;5979;50.800;4.904;2023-08-08T14:16:54;1.65;;;1.55;;
11839;SDS011;5979;50.800;4.904;2023-08-08T14:19:20;1.55;;;1.45;;
11839;SDS011;5979;50.800;4.904;2023-08-08T14:21:46;1.92;;;1.77;;
11839;SDS011;5979;50.800;4.904;2023-08-08T14:24:11;1.40;;;1.40;;
11839;SDS011;5979;50.800;4.904;2023-08-08T14:26:37;1.50;;;1.40;;
11839;SDS011;5979;50.800;4.904;2023-08-08T14:29:03;1.67;;;1.45;;
11839;SDS011;5979;50.800;4.904;2023-08-08T14:31:29;2.22;;;1.45;;
11839;SDS011;5979;50.800;4.904;2023-08-08T14:33:55;1.33;;;1.30;;
11839;SDS011;5979;50.800;4.904;2023-08-08T14:36:21;2.15;;;1.30;;
11839;SDS011;5979;50.800;4.904;2023-08-08T14:38:46;3.58;;;1.75;;
11839;SDS011;5979;50.800;4.904;2023-08-08T14:41:12;1.70;;;1.60;;
11839;SDS011;5979;50.800;4.904;2023-08-08T14:43:38;1.77;;;1.58;;
11839;SDS011;5979;50.800;4.904;2023-08-08T14:46:03;1.45;;;1.35;;
11839;SDS011;5979;50.800;4.904;2023-08-08T14:48:29;1.55;;;1.45;;
11839;SDS011;5979;50.800;4.904;2023-08-08T14:50:55;2.53;;;1.40;;
11839;SDS011;5979;50.800;4.904;2023-08-08T14:53:20;1.88;;;1.65;;
11839;SDS011;5979;50.800;4.904;2023-08-08T14:55:46;1.55;;;1.45;;
11839;SDS011;5979;50.800;4.904;2023-08-08T14:58:13;2.17;;;1.42;;
11839;SDS011;5979;50.800;4.904;2023-08-08T15:00:39;1.77;;;1.52;;